Rochester, NH

9:22 PM EST on December 10, 2017 (GMT -0500)
Skyhaven

Weather History for KDAW - March, 2013

Change the Weather History Date:

Tuesday, March 19, 2013

  Actual Average (KPSM) Record (KPSM)
Temperature  
Mean Temperature 28 °F -  
Max Temperature 32 °F 39 °F 74 °F (2012)
Min Temperature 24 °F 25 °F -4 °F (1993)
Degree Days  
Heating Degree Days 37    
Moisture  
Dew Point 26 °F    
Average Humidity 89    
Maximum Humidity 93    
Minimum Humidity 80    
Precipitation  
Precipitation 0.58 in - - ()
Sea Level Pressure  
Sea Level Pressure 29.89 in    
Wind  
Wind Speed 8 mph (ENE)    
Max Wind Speed 17 mph    
Max Gust Speed 30 mph    
Visibility 1 miles    
Events Fog , Snow    
Averages and records for this station are not official NWS values.
T = Trace of Precipitation, MM = Missing Value Source: NWS Daily Summary

Daily Weather History Graph

Daily Weather History Graph

Search for Another Location

Airport or City:

Trip Planner

Search our weather history database for the weather conditions in past years. The results will help you decide how hot, cold, wet, or windy it might be!

Date:

Astronomy

Mar. 19, 2013 Rise Set
Actual Time 6:48 AM EDT 6:55 PM EDT
Civil Twilight 6:19 AM EDT 7:23 PM EDT
Nautical Twilight 5:46 AM EDT 7:56 PM EDT
Astronomical Twilight 5:12 AM EDT 8:31 PM EDT
Moon 11:26 AM EDT (3/19) 1:48 AM EDT (3/19)
Length of Visible Light 13h 03m
Length of Day
12h 06m
Waxing Crescent, 49% of the Moon is Illuminated
Mar 19
Waxing Crescent
Mar 19
First Quarter
Mar 27
Full
Apr 3
Last Quarter
Apr 10
New

Hourly Weather History & Observations

Time (EDT) Temp. Windchill Dew Point Humidity Pressure Visibility Wind Dir Wind Speed Gust Speed Precip Events Conditions
12:27 AM 30.2 °F 24.3 °F 24.8 °F 80% 30.23 in 2.0 mi South 5.8 mph - 0.00 in Snow Light Snow
12:34 AM 30.2 °F 24.3 °F 24.8 °F 80% 30.23 in 1.0 mi South 5.8 mph - 0.00 in Snow Light Snow
12:40 AM 28.4 °F 23.3 °F 24.8 °F 86% 30.22 in 0.8 mi South 4.6 mph - 0.01 in Snow Light Snow
12:51 AM 28.9 °F 25.2 °F 27.0 °F 92% 30.22 in 0.8 mi SSE 3.5 mph - 0.02 in Snow Light Snow
1:00 AM 28.4 °F 24.6 °F 26.6 °F 93% 30.21 in 0.8 mi SSE 3.5 mph - 0.01 in Snow Light Snow
1:11 AM 28.4 °F 23.3 °F 26.6 °F 93% 30.20 in 1.0 mi SE 4.6 mph - 0.02 in Snow Light Snow
1:19 AM 28.4 °F 22.2 °F 26.6 °F 93% 30.19 in 0.8 mi SE 5.8 mph - 0.02 in Snow Light Snow
1:42 AM 28.4 °F 24.6 °F 26.6 °F 93% 30.19 in 1.0 mi SE 3.5 mph - 0.04 in Snow Light Snow
1:51 AM 28.9 °F 22.8 °F 26.1 °F 89% 30.19 in 1.0 mi SE 5.8 mph - 0.05 in Snow Light Snow
2:01 AM 28.4 °F 21.2 °F 26.6 °F 93% 30.18 in 0.8 mi ESE 6.9 mph - 0.01 in Snow Light Snow
2:18 AM 28.4 °F 23.3 °F 26.6 °F 93% 30.17 in 1.0 mi ESE 4.6 mph - 0.02 in Snow Light Snow
2:25 AM 28.4 °F - 26.6 °F 93% 30.16 in 0.8 mi Calm Calm - 0.02 in Snow Light Snow
2:39 AM 28.4 °F 24.6 °F 26.6 °F 93% 30.15 in 1.0 mi East 3.5 mph - 0.03 in Snow Light Snow
2:51 AM 28.9 °F 21.1 °F 26.1 °F 89% 30.14 in 1.0 mi East 8.1 mph - 0.04 in Snow Light Snow
3:07 AM 28.4 °F 21.2 °F 26.6 °F 93% 30.13 in 0.8 mi East 6.9 mph - 0.01 in Snow Light Snow
3:51 AM 28.9 °F 23.9 °F 27.0 °F 92% 30.13 in 0.5 mi ESE 4.6 mph - 0.06 in Fog , Snow Snow
4:51 AM 28.9 °F 21.9 °F 27.0 °F 92% 30.12 in 1.0 mi East 6.9 mph - 0.06 in Snow Light Snow
5:03 AM 28.4 °F 21.2 °F 26.6 °F 93% 30.10 in 0.8 mi East 6.9 mph - 0.01 in Snow Light Snow
6:51 AM 30.0 °F 22.4 °F 28.0 °F 92% 30.08 in 0.8 mi East 8.1 mph - 0.05 in Snow Light Snow
7:37 AM 30.2 °F 22.6 °F 28.4 °F 93% 30.05 in 0.5 mi East 8.1 mph - 0.03 in Fog , Snow Snow
7:46 AM 30.2 °F 23.4 °F 28.4 °F 93% 30.05 in 0.5 mi East 6.9 mph - 0.03 in Fog , Snow Snow
7:51 AM 30.0 °F 22.4 °F 28.0 °F 92% 30.05 in 0.5 mi East 8.1 mph 16.1 mph 0.03 in Fog , Snow Snow
8:51 AM 30.0 °F 22.4 °F 28.0 °F 92% 30.02 in 0.5 mi East 8.1 mph 20.7 mph 0.01 in Fog , Snow Snow
9:51 AM 30.9 °F 21.7 °F 28.9 °F 92% 29.99 in 0.8 mi East 11.5 mph 23.0 mph 0.02 in Snow Light Snow
10:51 AM 32.0 °F 23.6 °F 28.9 °F 88% 29.96 in 0.5 mi East 10.4 mph 20.7 mph 0.01 in Fog , Snow Light Snow
11:51 AM 32.0 °F 22.1 °F 28.9 °F 88% 29.92 in 0.5 mi East 13.8 mph 28.8 mph 0.01 in Fog , Snow Light Snow
12:07 PM 32.0 °F 23.0 °F 28.4 °F 87% 29.91 in 0.2 mi East 11.5 mph 25.3 mph 0.01 in Fog , Snow Snow
12:27 PM 32.0 °F 22.1 °F 30.2 °F 93% 29.90 in 0.5 mi ENE 13.8 mph 19.6 mph 0.02 in Fog , Snow Snow
12:51 PM 32.0 °F 21.6 °F 28.9 °F 88% 29.88 in 0.5 mi East 15.0 mph 21.9 mph 0.02 in Fog , Snow Snow
1:51 PM 32.0 °F 20.8 °F 28.9 °F 88% 29.83 in 1.0 mi East 17.3 mph 26.5 mph 0.00 in Snow Light Snow
2:13 PM 32.0 °F 20.8 °F 28.4 °F 87% 29.80 in 1.0 mi East 17.3 mph 26.5 mph 0.00 in Snow Light Snow
2:17 PM 32.0 °F 22.5 °F 28.4 °F 87% 29.80 in 0.8 mi East 12.7 mph 24.2 mph 0.00 in Snow Light Snow
2:26 PM 32.0 °F 22.5 °F 28.4 °F 87% 29.80 in 1.0 mi ENE 12.7 mph 29.9 mph 0.00 in Snow Light Snow
2:34 PM 32.0 °F 21.2 °F 28.4 °F 87% 29.78 in 0.8 mi ENE 16.1 mph 29.9 mph 0.00 in Snow Light Snow
2:43 PM 32.0 °F 24.2 °F 28.4 °F 87% 29.80 in 0.5 mi ENE 9.2 mph 24.2 mph 0.01 in Fog , Snow Light Snow
2:46 PM 32.0 °F 21.6 °F 28.4 °F 87% 29.80 in 0.5 mi NE 15.0 mph 19.6 mph 0.01 in Fog , Snow Light Snow
2:51 PM 32.0 °F 23.6 °F 28.9 °F 88% 29.80 in 0.5 mi ENE 10.4 mph 19.6 mph 0.01 in Fog , Snow Light Snow
3:41 PM 32.0 °F 23.6 °F 30.2 °F 93% 29.83 in 0.2 mi NNE 10.4 mph - 0.06 in Fog , Snow Snow
3:51 PM 30.9 °F 23.5 °F 28.9 °F 92% 29.82 in 0.5 mi NE 8.1 mph - 0.07 in Fog , Snow Snow
3:59 PM 30.2 °F 21.9 °F 28.4 °F 93% 29.80 in 0.2 mi ENE 9.2 mph - 0.01 in Fog , Snow Snow
4:46 PM 30.2 °F 20.2 °F 28.4 °F 93% 29.75 in 0.2 mi ENE 12.7 mph 21.9 mph 0.08 in Fog , Snow Heavy Snow
4:51 PM 30.9 °F 21.7 °F 28.9 °F 92% 29.75 in 0.2 mi ENE 11.5 mph 21.9 mph 0.08 in Fog , Snow Snow
5:02 PM 30.2 °F 18.9 °F 28.4 °F 93% 29.72 in 0.5 mi ENE 16.1 mph 25.3 mph 0.00 in Fog , Snow Snow
5:21 PM 30.2 °F 19.3 °F 28.4 °F 93% 29.71 in 0.2 mi ENE 15.0 mph 24.2 mph 0.01 in Fog , Snow Snow
5:36 PM 30.2 °F 19.8 °F 28.4 °F 93% 29.69 in 0.5 mi NE 13.8 mph 25.3 mph 0.01 in Fog , Snow Snow
5:51 PM 30.0 °F 19.5 °F 28.0 °F 92% 29.70 in 0.5 mi NE 13.8 mph 20.7 mph 0.02 in Fog , Snow Snow
6:16 PM 30.2 °F 19.8 °F 26.6 °F 86% 29.70 in 1.0 mi NE 13.8 mph 20.7 mph 0.00 in Snow Light Snow
6:42 PM 30.2 °F 20.2 °F 26.6 °F 86% 29.69 in 2.5 mi NNE 12.7 mph 19.6 mph 0.00 in Snow Light Snow
6:51 PM 28.9 °F 18.6 °F 26.1 °F 89% 29.69 in 1.8 mi NNE 12.7 mph 19.6 mph 0.00 in Snow Light Snow
7:04 PM 28.4 °F 19.7 °F 26.6 °F 93% 29.68 in 1.0 mi NNE 9.2 mph 21.9 mph 0.00 in Snow Light Snow
7:10 PM 28.4 °F 18.5 °F 26.6 °F 93% 29.68 in 1.5 mi NNE 11.5 mph 19.6 mph 0.00 in Snow Light Snow
7:18 PM 28.4 °F 18.5 °F 26.6 °F 93% 29.68 in 2.0 mi NNE 11.5 mph 17.3 mph 0.00 in Snow Light Snow
7:25 PM 28.4 °F 20.4 °F 24.8 °F 86% 29.68 in 2.5 mi NNE 8.1 mph 19.6 mph 0.01 in Snow Light Snow
7:51 PM 28.0 °F 18.1 °F 25.0 °F 88% 29.69 in 2.0 mi North 11.5 mph - 0.01 in Snow Light Snow
7:59 PM 26.6 °F 15.7 °F 24.8 °F 93% 29.68 in 2.5 mi North 12.7 mph 19.6 mph 0.00 in Snow Light Snow
8:05 PM 26.6 °F 16.8 °F 24.8 °F 93% 29.68 in 3.0 mi NNE 10.4 mph 18.4 mph 0.00 in Snow Light Snow
8:11 PM 26.6 °F 17.5 °F 24.8 °F 93% 29.68 in 2.5 mi NNE 9.2 mph 18.4 mph 0.00 in Snow Light Snow
8:19 PM 26.6 °F 15.2 °F 24.8 °F 93% 29.67 in 1.8 mi NNE 13.8 mph 21.9 mph 0.00 in Snow Light Snow
8:51 PM 26.1 °F 15.0 °F 21.9 °F 84% 29.68 in 1.5 mi North 12.7 mph 20.7 mph 0.00 in Snow Light Snow
9:34 PM 24.8 °F 12.4 °F 21.2 °F 86% 29.67 in 2.5 mi North 15.0 mph 23.0 mph 0.00 in Snow Light Snow
9:43 PM 24.8 °F 12.9 °F 21.2 °F 86% 29.67 in 3.0 mi North 13.8 mph 25.3 mph 0.00 in Snow Light Snow
9:51 PM 25.0 °F 12.6 °F 21.0 °F 85% 29.68 in 3.0 mi North 15.0 mph 20.7 mph 0.00 in Snow Light Snow
10:12 PM 24.8 °F 12.4 °F 19.4 °F 80% 29.68 in 4.0 mi NNW 15.0 mph 23.0 mph 0.00 in Snow Light Snow
10:51 PM 25.0 °F 12.2 °F 19.9 °F 81% 29.67 in 5.0 mi North 16.1 mph 21.9 mph 0.00 in Snow Light Snow
11:05 PM 24.8 °F 12.9 °F 19.4 °F 80% 29.67 in 2.5 mi NNW 13.8 mph 21.9 mph 0.00 in Snow Light Snow
11:19 PM 24.8 °F 13.4 °F 19.4 °F 80% 29.67 in 1.8 mi North 12.7 mph 21.9 mph 0.00 in Snow Light Snow
11:51 PM 24.1 °F 12.5 °F 19.9 °F 84% 29.68 in 2.0 mi NNW 12.7 mph - 0.01 in Snow Light Snow